sensor_id;sensor_type;location;lat;lon;timestamp;temperature;humidity
8856;DHT22;4464;50.882;4.730;2023-03-01T00:01:06;0.10;99.90
8856;DHT22;4464;50.882;4.730;2023-03-01T00:03:32;0.10;99.90
8856;DHT22;4464;50.882;4.730;2023-03-01T00:05:59;0.10;99.90
8856;DHT22;4464;50.882;4.730;2023-03-01T00:08:25;0.10;99.90
8856;DHT22;4464;50.882;4.730;2023-03-01T00:11:12;0.00;99.90
8856;DHT22;4464;50.882;4.730;2023-03-01T00:13:39;0.00;99.90
8856;DHT22;4464;50.882;4.730;2023-03-01T00:16:17;0.00;99.90
8856;DHT22;4464;50.882;4.730;2023-03-01T00:18:44;-0.10;99.90
8856;DHT22;4464;50.882;4.730;2023-03-01T00:21:11;-0.10;99.90
8856;DHT22;4464;50.882;4.730;2023-03-01T00:23:41;0.00;99.90
8856;DHT22;4464;50.882;4.730;2023-03-01T00:26:13;0.00;99.90
8856;DHT22;4464;50.882;4.730;2023-03-01T00:28:42;-0.10;99.90
8856;DHT22;4464;50.882;4.730;2023-03-01T00:31:16;-0.10;99.90
8856;DHT22;4464;50.882;4.730;2023-03-01T00:33:45;-0.20;99.90
8856;DHT22;4464;50.882;4.730;2023-03-01T00:36:13;-0.20;99.90
8856;DHT22;4464;50.882;4.730;2023-03-01T00:38:41;-0.20;99.90
8856;DHT22;4464;50.882;4.730;2023-03-01T00:41:11;-0.20;99.90
8856;DHT22;4464;50.882;4.730;2023-03-01T00:43:40;-0.20;99.90
8856;DHT22;4464;50.882;4.730;2023-03-01T00:46:11;-0.20;99.90
8856;DHT22;4464;50.882;4.730;2023-03-01T00:48:38;-0.20;99.90
8856;DHT22;4464;50.882;4.730;2023-03-01T00:51:24;-0.20;99.90
8856;DHT22;4464;50.882;4.730;2023-03-01T00:53:55;-0.20;99.90
8856;DHT22;4464;50.882;4.730;2023-03-01T00:56:22;-0.30;99.90
8856;DHT22;4464;50.882;4.730;2023-03-01T00:58:48;-0.30;99.90
8856;DHT22;4464;50.882;4.730;2023-03-01T01:01:21;-0.30;99.90
8856;DHT22;4464;50.882;4.730;2023-03-01T01:03:55;-0.40;99.90
8856;DHT22;4464;50.882;4.730;2023-03-01T01:06:30;-0.40;99.90
8856;DHT22;4464;50.882;4.730;2023-03-01T01:08:59;-0.40;99.90
8856;DHT22;4464;50.882;4.730;2023-03-01T01:11:26;-0.50;99.90
8856;DHT22;4464;50.882;4.730;2023-03-01T01:13:53;-0.50;99.90
8856;DHT22;4464;50.882;4.730;2023-03-01T01:16:20;-0.50;99.90
8856;DHT22;4464;50.882;4.730;2023-03-01T01:18:47;-0.50;99.90
8856;DHT22;4464;50.882;4.730;2023-03-01T01:21:15;-0.50;99.90
8856;DHT22;4464;50.882;4.730;2023-03-01T01:23:43;-0.60;99.90
8856;DHT22;4464;50.882;4.730;2023-03-01T01:26:15;-0.70;99.90
8856;DHT22;4464;50.882;4.730;2023-03-01T01:28:42;-0.70;99.90
8856;DHT22;4464;50.882;4.730;2023-03-01T01:31:10;-0.70;99.90
8856;DHT22;4464;50.882;4.730;2023-03-01T01:33:37;-0.70;99.90
8856;DHT22;4464;50.882;4.730;2023-03-01T01:36:04;-0.70;99.90
8856;DHT22;4464;50.882;4.730;2023-03-01T01:38:30;-0.80;99.90
8856;DHT22;4464;50.882;4.730;2023-03-01T01:40:56;-0.80;99.90
8856;DHT22;4464;50.882;4.730;2023-03-01T01:43:28;-0.80;99.90
8856;DHT22;4464;50.882;4.730;2023-03-01T01:46:03;-0.80;99.90
8856;DHT22;4464;50.882;4.730;2023-03-01T01:48:48;-0.90;99.90
8856;DHT22;4464;50.882;4.730;2023-03-01T01:51:28;-0.90;99.90
8856;DHT22;4464;50.882;4.730;2023-03-01T01:54:12;-0.90;99.90
8856;DHT22;4464;50.882;4.730;2023-03-01T01:56:45;-0.90;99.90
8856;DHT22;4464;50.882;4.730;2023-03-01T01:59:13;-0.90;99.90
8856;DHT22;4464;50.882;4.730;2023-03-01T02:01:43;-0.90;99.90
8856;DHT22;4464;50.882;4.730;2023-03-01T02:04:09;-0.90;99.90
8856;DHT22;4464;50.882;4.730;2023-03-01T02:06:43;-0.90;99.90
8856;DHT22;4464;50.882;4.730;2023-03-01T02:09:13;-0.90;99.90
8856;DHT22;4464;50.882;4.730;2023-03-01T02:11:40;-0.80;99.90
8856;DHT22;4464;50.882;4.730;2023-03-01T02:14:06;-0.80;99.90
8856;DHT22;4464;50.882;4.730;2023-03-01T02:16:32;-0.80;99.90
8856;DHT22;4464;50.882;4.730;2023-03-01T02:18:59;-0.90;99.90
8856;DHT22;4464;50.882;4.730;2023-03-01T02:24:08;-1.00;99.90
8856;DHT22;4464;50.882;4.730;2023-03-01T02:26:50;-1.00;99.90
8856;DHT22;4464;50.882;4.730;2023-03-01T02:29:19;-1.00;99.90
8856;DHT22;4464;50.882;4.730;2023-03-01T02:31:45;-1.00;99.90
8856;DHT22;4464;50.882;4.730;2023-03-01T02:34:14;-1.00;99.90
8856;DHT22;4464;50.882;4.730;2023-03-01T02:39:25;-1.10;99.90
8856;DHT22;4464;50.882;4.730;2023-03-01T02:41:53;-1.10;99.90
8856;DHT22;4464;50.882;4.730;2023-03-01T02:44:20;-1.10;99.90
8856;DHT22;4464;50.882;4.730;2023-03-01T02:46:54;-1.10;99.90
8856;DHT22;4464;50.882;4.730;2023-03-01T02:49:31;-1.20;99.90
8856;DHT22;4464;50.882;4.730;2023-03-01T02:55:13;-1.20;99.90
8856;DHT22;4464;50.882;4.730;2023-03-01T02:57:43;-1.20;99.90
8856;DHT22;4464;50.882;4.730;2023-03-01T03:00:13;-1.30;99.90
8856;DHT22;4464;50.882;4.730;2023-03-01T03:02:49;-1.30;99.90
8856;DHT22;4464;50.882;4.730;2023-03-01T03:05:22;-1.30;99.90
8856;DHT22;4464;50.882;4.730;2023-03-01T03:07:51;-1.30;99.90
8856;DHT22;4464;50.882;4.730;2023-03-01T03:10:28;-1.40;99.90
8856;DHT22;4464;50.882;4.730;2023-03-01T03:13:02;-1.40;99.90
8856;DHT22;4464;50.882;4.730;2023-03-01T03:15:31;-1.40;99.90
8856;DHT22;4464;50.882;4.730;2023-03-01T03:18:03;-1.40;99.90
8856;DHT22;4464;50.882;4.730;2023-03-01T03:20:29;-1.40;99.90
8856;DHT22;4464;50.882;4.730;2023-03-01T03:22:58;-1.50;99.90
8856;DHT22;4464;50.882;4.730;2023-03-01T03:25:25;-1.60;99.90
8856;DHT22;4464;50.882;4.730;2023-03-01T03:27:53;-1.50;99.90
8856;DHT22;4464;50.882;4.730;2023-03-01T03:30:32;-1.50;99.90
8856;DHT22;4464;50.882;4.730;2023-03-01T03:32:58;-1.50;99.90
8856;DHT22;4464;50.882;4.730;2023-03-01T03:35:31;-1.50;99.90
8856;DHT22;4464;50.882;4.730;2023-03-01T03:38:04;-1.50;99.90
8856;DHT22;4464;50.882;4.730;2023-03-01T03:40:39;-1.60;99.90
8856;DHT22;4464;50.882;4.730;2023-03-01T03:43:17;-1.60;99.90
8856;DHT22;4464;50.882;4.730;2023-03-01T03:45:45;-1.60;99.90
8856;DHT22;4464;50.882;4.730;2023-03-01T03:48:11;-1.60;99.90
8856;DHT22;4464;50.882;4.730;2023-03-01T03:50:38;-1.60;99.90
8856;DHT22;4464;50.882;4.730;2023-03-01T03:53:11;-1.60;99.90
8856;DHT22;4464;50.882;4.730;2023-03-01T03:55:37;-1.60;99.90
8856;DHT22;4464;50.882;4.730;2023-03-01T03:58:06;-1.60;99.90
8856;DHT22;4464;50.882;4.730;2023-03-01T04:00:35;-1.60;99.90
8856;DHT22;4464;50.882;4.730;2023-03-01T04:03:01;-1.60;99.90
8856;DHT22;4464;50.882;4.730;2023-03-01T04:05:27;-1.60;99.90
8856;DHT22;4464;50.882;4.730;2023-03-01T04:07:53;-1.70;99.90
8856;DHT22;4464;50.882;4.730;2023-03-01T04:10:28;-1.70;99.90
8856;DHT22;4464;50.882;4.730;2023-03-01T04:12:57;-1.60;99.90
8856;DHT22;4464;50.882;4.730;2023-03-01T04:15:26;-1.70;99.90
8856;DHT22;4464;50.882;4.730;2023-03-01T04:17:55;-1.70;99.90
8856;DHT22;4464;50.882;4.730;2023-03-01T04:20:27;-1.70;99.90
8856;DHT22;4464;50.882;4.730;2023-03-01T04:23:09;-1.70;99.90
8856;DHT22;4464;50.882;4.730;2023-03-01T04:25:53;-1.70;99.90
8856;DHT22;4464;50.882;4.730;2023-03-01T04:28:26;-1.70;99.90
8856;DHT22;4464;50.882;4.730;2023-03-01T04:30:58;-1.70;99.90
8856;DHT22;4464;50.882;4.730;2023-03-01T04:33:27;-1.80;99.90
8856;DHT22;4464;50.882;4.730;2023-03-01T04:35:55;-1.80;99.90
8856;DHT22;4464;50.882;4.730;2023-03-01T04:38:23;-1.80;99.90
8856;DHT22;4464;50.882;4.730;2023-03-01T04:40:48;-1.90;99.90
8856;DHT22;4464;50.882;4.730;2023-03-01T04:43:14;-1.90;99.90
8856;DHT22;4464;50.882;4.730;2023-03-01T04:45:40;-1.90;99.90
8856;DHT22;4464;50.882;4.730;2023-03-01T04:48:06;-2.00;99.90
8856;DHT22;4464;50.882;4.730;2023-03-01T04:50:33;-2.00;99.90
8856;DHT22;4464;50.882;4.730;2023-03-01T04:52:59;-2.00;99.90
8856;DHT22;4464;50.882;4.730;2023-03-01T04:55:26;-2.00;99.90
8856;DHT22;4464;50.882;4.730;2023-03-01T04:57:52;-2.00;99.90
8856;DHT22;4464;50.882;4.730;2023-03-01T05:00:21;-2.00;99.90
8856;DHT22;4464;50.882;4.730;2023-03-01T05:02:52;-1.90;99.90
8856;DHT22;4464;50.882;4.730;2023-03-01T05:05:38;-2.00;99.90
8856;DHT22;4464;50.882;4.730;2023-03-01T05:08:08;-2.00;99.90
8856;DHT22;4464;50.882;4.730;2023-03-01T05:10:37;-2.00;99.90
8856;DHT22;4464;50.882;4.730;2023-03-01T05:13:06;-1.90;99.90
8856;DHT22;4464;50.882;4.730;2023-03-01T05:15:32;-1.90;99.90
8856;DHT22;4464;50.882;4.730;2023-03-01T05:18:01;-1.90;99.90
8856;DHT22;4464;50.882;4.730;2023-03-01T05:20:29;-1.90;99.90
8856;DHT22;4464;50.882;4.730;2023-03-01T05:22:59;-1.90;99.90
8856;DHT22;4464;50.882;4.730;2023-03-01T05:25:26;-2.00;99.90
8856;DHT22;4464;50.882;4.730;2023-03-01T05:27:51;-2.00;99.90
8856;DHT22;4464;50.882;4.730;2023-03-01T05:30:17;-2.10;99.90
8856;DHT22;4464;50.882;4.730;2023-03-01T05:32:49;-2.10;99.90
8856;DHT22;4464;50.882;4.730;2023-03-01T05:35:17;-2.10;99.90
8856;DHT22;4464;50.882;4.730;2023-03-01T05:37:45;-2.10;99.90
8856;DHT22;4464;50.882;4.730;2023-03-01T05:40:13;-2.20;99.90
8856;DHT22;4464;50.882;4.730;2023-03-01T05:42:48;-2.20;99.90
8856;DHT22;4464;50.882;4.730;2023-03-01T05:45:15;-2.20;99.90
8856;DHT22;4464;50.882;4.730;2023-03-01T05:47:45;-2.20;99.90
8856;DHT22;4464;50.882;4.730;2023-03-01T05:50:25;-2.20;99.90
8856;DHT22;4464;50.882;4.730;2023-03-01T05:53:02;-2.30;99.90
8856;DHT22;4464;50.882;4.730;2023-03-01T05:55:32;-2.30;99.90
8856;DHT22;4464;50.882;4.730;2023-03-01T05:58:03;-2.30;99.90
8856;DHT22;4464;50.882;4.730;2023-03-01T06:00:29;-2.30;99.90
8856;DHT22;4464;50.882;4.730;2023-03-01T06:02:56;-2.30;99.90
8856;DHT22;4464;50.882;4.730;2023-03-01T06:05:25;-2.30;99.90
8856;DHT22;4464;50.882;4.730;2023-03-01T06:07:52;-2.30;99.90
8856;DHT22;4464;50.882;4.730;2023-03-01T06:10:22;-2.30;99.90
8856;DHT22;4464;50.882;4.730;2023-03-01T06:12:48;-2.30;99.90
8856;DHT22;4464;50.882;4.730;2023-03-01T06:15:17;-2.40;99.90
8856;DHT22;4464;50.882;4.730;2023-03-01T06:17:44;-2.40;99.90
8856;DHT22;4464;50.882;4.730;2023-03-01T06:20:17;-2.30;99.90
8856;DHT22;4464;50.882;4.730;2023-03-01T06:22:43;-2.30;99.90
8856;DHT22;4464;50.882;4.730;2023-03-01T06:25:10;-2.30;99.90
8856;DHT22;4464;50.882;4.730;2023-03-01T06:27:36;-2.30;99.90
8856;DHT22;4464;50.882;4.730;2023-03-01T06:30:08;-2.30;99.90
8856;DHT22;4464;50.882;4.730;2023-03-01T06:32:36;-2.30;99.90
8856;DHT22;4464;50.882;4.730;2023-03-01T06:35:03;-2.40;99.90
8856;DHT22;4464;50.882;4.730;2023-03-01T06:37:29;-2.40;99.90
8856;DHT22;4464;50.882;4.730;2023-03-01T06:39:55;-2.40;99.90
8856;DHT22;4464;50.882;4.730;2023-03-01T06:42:21;-2.40;99.90
8856;DHT22;4464;50.882;4.730;2023-03-01T06:44:49;-2.30;99.90
8856;DHT22;4464;50.882;4.730;2023-03-01T06:47:15;-2.40;99.90
8856;DHT22;4464;50.882;4.730;2023-03-01T06:49:41;-2.40;99.90
8856;DHT22;4464;50.882;4.730;2023-03-01T06:52:07;-2.30;99.90
8856;DHT22;4464;50.882;4.730;2023-03-01T06:54:35;-2.30;99.90
8856;DHT22;4464;50.882;4.730;2023-03-01T06:57:06;-2.30;99.90
8856;DHT22;4464;50.882;4.730;2023-03-01T06:59:32;-2.30;99.90
8856;DHT22;4464;50.882;4.730;2023-03-01T07:01:58;-2.20;99.90
8856;DHT22;4464;50.882;4.730;2023-03-01T07:04:23;-2.20;99.90
8856;DHT22;4464;50.882;4.730;2023-03-01T07:06:54;-2.20;99.90
8856;DHT22;4464;50.882;4.730;2023-03-01T07:09:22;-2.10;99.90
8856;DHT22;4464;50.882;4.730;2023-03-01T07:11:48;-2.10;99.90
8856;DHT22;4464;50.882;4.730;2023-03-01T07:14:15;-2.10;99.90
8856;DHT22;4464;50.882;4.730;2023-03-01T07:16:41;-2.00;99.90
8856;DHT22;4464;50.882;4.730;2023-03-01T07:19:07;-1.90;99.90
8856;DHT22;4464;50.882;4.730;2023-03-01T07:21:32;-1.80;99.90
8856;DHT22;4464;50.882;4.730;2023-03-01T07:23:58;-1.70;99.90
8856;DHT22;4464;50.882;4.730;2023-03-01T07:26:27;-1.70;99.90
8856;DHT22;4464;50.882;4.730;2023-03-01T07:28:53;-1.60;99.90
8856;DHT22;4464;50.882;4.730;2023-03-01T07:31:19;-1.50;99.90
8856;DHT22;4464;50.882;4.730;2023-03-01T07:33:44;-1.40;99.90
8856;DHT22;4464;50.882;4.730;2023-03-01T07:36:10;-1.30;99.90
8856;DHT22;4464;50.882;4.730;2023-03-01T07:38:38;-1.20;99.90
8856;DHT22;4464;50.882;4.730;2023-03-01T07:41:08;-1.10;99.90
8856;DHT22;4464;50.882;4.730;2023-03-01T07:43:33;-1.00;99.90
8856;DHT22;4464;50.882;4.730;2023-03-01T07:46:03;-0.90;99.90
8856;DHT22;4464;50.882;4.730;2023-03-01T07:48:32;-0.60;99.90
8856;DHT22;4464;50.882;4.730;2023-03-01T07:50:59;-0.30;99.90
8856;DHT22;4464;50.882;4.730;2023-03-01T07:53:25;0.10;99.90
8856;DHT22;4464;50.882;4.730;2023-03-01T07:56:10;0.50;99.90
8856;DHT22;4464;50.882;4.730;2023-03-01T07:58:37;1.00;99.90
8856;DHT22;4464;50.882;4.730;2023-03-01T08:01:05;1.70;99.90
8856;DHT22;4464;50.882;4.730;2023-03-01T08:03:31;2.50;99.90
8856;DHT22;4464;50.882;4.730;2023-03-01T08:06:02;3.20;99.90
8856;DHT22;4464;50.882;4.730;2023-03-01T08:08:28;3.90;99.90
8856;DHT22;4464;50.882;4.730;2023-03-01T08:10:56;4.40;99.90
8856;DHT22;4464;50.882;4.730;2023-03-01T08:13:22;4.70;99.90
8856;DHT22;4464;50.882;4.730;2023-03-01T08:15:49;5.10;99.90
8856;DHT22;4464;50.882;4.730;2023-03-01T08:18:16;5.60;99.80
8856;DHT22;4464;50.882;4.730;2023-03-01T08:20:42;5.90;99.10
8856;DHT22;4464;50.882;4.730;2023-03-01T08:23:11;6.00;98.00
8856;DHT22;4464;50.882;4.730;2023-03-01T08:25:37;6.20;97.40
8856;DHT22;4464;50.882;4.730;2023-03-01T08:28:05;6.30;96.90
8856;DHT22;4464;50.882;4.730;2023-03-01T08:30:34;6.40;96.70
8856;DHT22;4464;50.882;4.730;2023-03-01T08:33:00;6.50;96.00
8856;DHT22;4464;50.882;4.730;2023-03-01T08:35:26;6.40;96.30
8856;DHT22;4464;50.882;4.730;2023-03-01T08:37:54;6.40;96.20
8856;DHT22;4464;50.882;4.730;2023-03-01T08:40:24;6.80;96.60
8856;DHT22;4464;50.882;4.730;2023-03-01T08:42:50;6.60;95.60
8856;DHT22;4464;50.882;4.730;2023-03-01T08:45:18;6.60;95.40
8856;DHT22;4464;50.882;4.730;2023-03-01T08:47:44;6.90;95.30
8856;DHT22;4464;50.882;4.730;2023-03-01T08:50:12;7.10;95.20
8856;DHT22;4464;50.882;4.730;2023-03-01T08:52:38;7.30;94.90
8856;DHT22;4464;50.882;4.730;2023-03-01T08:55:04;7.50;94.40
8856;DHT22;4464;50.882;4.730;2023-03-01T08:57:30;7.80;94.00
8856;DHT22;4464;50.882;4.730;2023-03-01T08:59:56;8.00;93.20
8856;DHT22;4464;50.882;4.730;2023-03-01T09:02:22;8.30;93.10
8856;DHT22;4464;50.882;4.730;2023-03-01T09:04:52;8.70;92.70
8856;DHT22;4464;50.882;4.730;2023-03-01T09:07:18;9.00;92.20
8856;DHT22;4464;50.882;4.730;2023-03-01T09:09:44;9.10;91.80
8856;DHT22;4464;50.882;4.730;2023-03-01T09:12:09;9.30;91.40
8856;DHT22;4464;50.882;4.730;2023-03-01T09:14:35;9.60;90.90
8856;DHT22;4464;50.882;4.730;2023-03-01T09:17:04;9.90;90.30
8856;DHT22;4464;50.882;4.730;2023-03-01T09:19:30;10.00;88.90
8856;DHT22;4464;50.882;4.730;2023-03-01T09:21:56;10.10;88.40
8856;DHT22;4464;50.882;4.730;2023-03-01T09:24:24;10.60;87.50
8856;DHT22;4464;50.882;4.730;2023-03-01T09:26:54;10.70;86.00
8856;DHT22;4464;50.882;4.730;2023-03-01T09:29:22;11.50;85.50
8856;DHT22;4464;50.882;4.730;2023-03-01T09:31:48;12.20;82.50
8856;DHT22;4464;50.882;4.730;2023-03-01T09:34:14;12.30;81.80
8856;DHT22;4464;50.882;4.730;2023-03-01T09:36:50;12.40;80.70
8856;DHT22;4464;50.882;4.730;2023-03-01T09:39:17;12.00;80.10
8856;DHT22;4464;50.882;4.730;2023-03-01T09:41:51;12.00;79.80
8856;DHT22;4464;50.882;4.730;2023-03-01T09:46:47;12.40;78.60
8856;DHT22;4464;50.882;4.730;2023-03-01T09:49:23;12.10;76.90
8856;DHT22;4464;50.882;4.730;2023-03-01T09:52:17;12.30;78.40
8856;DHT22;4464;50.882;4.730;2023-03-01T09:54:47;12.70;76.70
8856;DHT22;4464;50.882;4.730;2023-03-01T09:57:28;12.50;77.40
8856;DHT22;4464;50.882;4.730;2023-03-01T10:00:09;12.30;76.50
8856;DHT22;4464;50.882;4.730;2023-03-01T10:05:52;12.90;76.30
8856;DHT22;4464;50.882;4.730;2023-03-01T10:08:29;12.60;73.80
8856;DHT22;4464;50.882;4.730;2023-03-01T10:10:57;11.30;74.50
8856;DHT22;4464;50.882;4.730;2023-03-01T10:13:41;11.00;75.50
8856;DHT22;4464;50.882;4.730;2023-03-01T10:16:16;10.70;76.50
8856;DHT22;4464;50.882;4.730;2023-03-01T10:18:46;10.70;76.90
8856;DHT22;4464;50.882;4.730;2023-03-01T10:21:16;11.20;76.00
8856;DHT22;4464;50.882;4.730;2023-03-01T10:23:43;11.50;76.20
8856;DHT22;4464;50.882;4.730;2023-03-01T10:31:15;11.50;75.20
8856;DHT22;4464;50.882;4.730;2023-03-01T10:33:42;11.80;74.10
8856;DHT22;4464;50.882;4.730;2023-03-01T10:36:08;12.00;74.00
8856;DHT22;4464;50.882;4.730;2023-03-01T10:38:53;12.10;73.60
8856;DHT22;4464;50.882;4.730;2023-03-01T10:41:23;11.80;73.80
8856;DHT22;4464;50.882;4.730;2023-03-01T10:43:53;12.40;73.80
8856;DHT22;4464;50.882;4.730;2023-03-01T10:46:33;12.30;71.00
8856;DHT22;4464;50.882;4.730;2023-03-01T10:49:21;11.70;71.70
8856;DHT22;4464;50.882;4.730;2023-03-01T10:51:52;11.40;73.20
8856;DHT22;4464;50.882;4.730;2023-03-01T10:54:28;11.80;73.20
8856;DHT22;4464;50.882;4.730;2023-03-01T10:56:58;12.10;73.20
8856;DHT22;4464;50.882;4.730;2023-03-01T10:59:36;12.70;71.50
8856;DHT22;4464;50.882;4.730;2023-03-01T11:02:26;12.90;71.10
8856;DHT22;4464;50.882;4.730;2023-03-01T11:04:57;13.30;69.70
8856;DHT22;4464;50.882;4.730;2023-03-01T11:07:29;14.10;69.10
8856;DHT22;4464;50.882;4.730;2023-03-01T11:09:55;14.60;66.90
8856;DHT22;4464;50.882;4.730;2023-03-01T11:12:21;15.00;67.00
8856;DHT22;4464;50.882;4.730;2023-03-01T11:14:57;15.20;64.30
8856;DHT22;4464;50.882;4.730;2023-03-01T11:17:30;14.90;64.20
8856;DHT22;4464;50.882;4.730;2023-03-01T11:22:48;14.70;64.90
8856;DHT22;4464;50.882;4.730;2023-03-01T11:25:15;15.10;64.70
8856;DHT22;4464;50.882;4.730;2023-03-01T11:27:44;15.50;62.60
8856;DHT22;4464;50.882;4.730;2023-03-01T11:30:34;15.70;61.80
8856;DHT22;4464;50.882;4.730;2023-03-01T11:35:55;15.50;62.20
8856;DHT22;4464;50.882;4.730;2023-03-01T11:38:27;16.10;61.70
8856;DHT22;4464;50.882;4.730;2023-03-01T11:41:02;15.60;59.60
8856;DHT22;4464;50.882;4.730;2023-03-01T11:43:51;15.80;60.20
8856;DHT22;4464;50.882;4.730;2023-03-01T12:00:11;17.50;57.40
8856;DHT22;4464;50.882;4.730;2023-03-01T12:05:24;17.50;57.90
8856;DHT22;4464;50.882;4.730;2023-03-01T12:16:11;18.40;55.50
8856;DHT22;4464;50.882;4.730;2023-03-01T12:21:39;17.30;54.80
8856;DHT22;4464;50.882;4.730;2023-03-01T12:30:39;18.60;54.40
8856;DHT22;4464;50.882;4.730;2023-03-01T12:32:46;18.70;53.90
8856;DHT22;4464;50.882;4.730;2023-03-01T12:35:30;19.40;54.00
8856;DHT22;4464;50.882;4.730;2023-03-01T12:51:47;20.90;51.80
8856;DHT22;4464;50.882;4.730;2023-03-01T12:54:19;20.50;50.90
8856;DHT22;4464;50.882;4.730;2023-03-01T12:56:49;20.20;50.40
8856;DHT22;4464;50.882;4.730;2023-03-01T12:59:19;19.70;51.10
8856;DHT22;4464;50.882;4.730;2023-03-01T13:07:44;16.70;51.50
8856;DHT22;4464;50.882;4.730;2023-03-01T13:10:34;16.20;52.90
8856;DHT22;4464;50.882;4.730;2023-03-01T13:13:11;17.40;52.90
8856;DHT22;4464;50.882;4.730;2023-03-01T13:15:38;18.70;52.20
8856;DHT22;4464;50.882;4.730;2023-03-01T13:18:27;19.30;51.40
8856;DHT22;4464;50.882;4.730;2023-03-01T13:20:56;18.90;51.60
8856;DHT22;4464;50.882;4.730;2023-03-01T13:23:24;18.60;51.00
8856;DHT22;4464;50.882;4.730;2023-03-01T13:28:58;18.10;51.20
8856;DHT22;4464;50.882;4.730;2023-03-01T13:34:02;18.10;50.70
8856;DHT22;4464;50.882;4.730;2023-03-01T13:39:18;19.00;50.60
8856;DHT22;4464;50.882;4.730;2023-03-01T13:41:54;19.10;51.00
8856;DHT22;4464;50.882;4.730;2023-03-01T13:44:35;19.50;50.50
8856;DHT22;4464;50.882;4.730;2023-03-01T13:47:15;19.90;49.40
8856;DHT22;4464;50.882;4.730;2023-03-01T13:49:59;19.60;49.30
8856;DHT22;4464;50.882;4.730;2023-03-01T13:58:14;18.50;50.30
8856;DHT22;4464;50.882;4.730;2023-03-01T14:00:41;17.50;50.50
8856;DHT22;4464;50.882;4.730;2023-03-01T14:03:15;17.20;51.30
8856;DHT22;4464;50.882;4.730;2023-03-01T14:05:50;17.70;51.20
8856;DHT22;4464;50.882;4.730;2023-03-01T14:08:24;17.70;51.00
8856;DHT22;4464;50.882;4.730;2023-03-01T14:19:19;16.50;52.70
8856;DHT22;4464;50.882;4.730;2023-03-01T14:21:47;16.50;51.60
8856;DHT22;4464;50.882;4.730;2023-03-01T14:24:21;17.00;51.30
8856;DHT22;4464;50.882;4.730;2023-03-01T14:26:49;18.00;51.10
8856;DHT22;4464;50.882;4.730;2023-03-01T14:29:34;18.80;49.90
8856;DHT22;4464;50.882;4.730;2023-03-01T14:34:36;17.80;50.70
8856;DHT22;4464;50.882;4.730;2023-03-01T14:39:43;19.90;49.40
8856;DHT22;4464;50.882;4.730;2023-03-01T14:42:14;19.50;49.00
8856;DHT22;4464;50.882;4.730;2023-03-01T14:44:43;17.50;48.50
8856;DHT22;4464;50.882;4.730;2023-03-01T14:47:16;16.00;51.30
8856;DHT22;4464;50.882;4.730;2023-03-01T14:49:58;16.50;51.40
8856;DHT22;4464;50.882;4.730;2023-03-01T14:52:37;17.10;50.80
8856;DHT22;4464;50.882;4.730;2023-03-01T14:55:20;17.10;51.00
8856;DHT22;4464;50.882;4.730;2023-03-01T14:57:50;17.70;49.40
8856;DHT22;4464;50.882;4.730;2023-03-01T15:00:27;17.50;49.40
8856;DHT22;4464;50.882;4.730;2023-03-01T15:02:55;17.10;50.20
8856;DHT22;4464;50.882;4.730;2023-03-01T15:05:32;16.70;49.60
8856;DHT22;4464;50.882;4.730;2023-03-01T15:08:01;16.20;49.70
8856;DHT22;4464;50.882;4.730;2023-03-01T15:10:33;16.00;51.10
8856;DHT22;4464;50.882;4.730;2023-03-01T15:13:13;16.40;50.80
8856;DHT22;4464;50.882;4.730;2023-03-01T15:15:47;16.40;49.70
8856;DHT22;4464;50.882;4.730;2023-03-01T15:18:22;16.30;50.30
8856;DHT22;4464;50.882;4.730;2023-03-01T15:20:51;16.60;50.30
8856;DHT22;4464;50.882;4.730;2023-03-01T15:23:24;16.90;49.90
8856;DHT22;4464;50.882;4.730;2023-03-01T15:25:52;17.10;49.50
8856;DHT22;4464;50.882;4.730;2023-03-01T15:28:25;17.30;49.70
8856;DHT22;4464;50.882;4.730;2023-03-01T15:31:02;17.30;49.50
8856;DHT22;4464;50.882;4.730;2023-03-01T15:33:36;17.50;49.10
8856;DHT22;4464;50.882;4.730;2023-03-01T15:36:46;16.90;49.60
8856;DHT22;4464;50.882;4.730;2023-03-01T15:39:35;16.30;50.70
8856;DHT22;4464;50.882;4.730;2023-03-01T15:42:51;16.10;51.60
8856;DHT22;4464;50.882;4.730;2023-03-01T15:45:09;16.00;51.00
8856;DHT22;4464;50.882;4.730;2023-03-01T15:47:36;16.40;51.10
8856;DHT22;4464;50.882;4.730;2023-03-01T15:50:17;16.40;51.30
8856;DHT22;4464;50.882;4.730;2023-03-01T15:52:44;16.70;51.20
8856;DHT22;4464;50.882;4.730;2023-03-01T15:55:20;16.50;51.30
8856;DHT22;4464;50.882;4.730;2023-03-01T15:57:47;16.30;52.10
8856;DHT22;4464;50.882;4.730;2023-03-01T16:00:13;16.00;51.70
8856;DHT22;4464;50.882;4.730;2023-03-01T16:02:42;16.00;52.00
8856;DHT22;4464;50.882;4.730;2023-03-01T16:05:29;15.80;51.00
8856;DHT22;4464;50.882;4.730;2023-03-01T16:07:56;15.20;51.50
8856;DHT22;4464;50.882;4.730;2023-03-01T16:10:23;14.70;52.00
8856;DHT22;4464;50.882;4.730;2023-03-01T16:12:50;14.50;53.10
8856;DHT22;4464;50.882;4.730;2023-03-01T16:15:31;15.00;53.10
8856;DHT22;4464;50.882;4.730;2023-03-01T16:17:58;14.90;52.60
8856;DHT22;4464;50.882;4.730;2023-03-01T16:20:25;14.60;52.60
8856;DHT22;4464;50.882;4.730;2023-03-01T16:22:51;14.20;53.10
8856;DHT22;4464;50.882;4.730;2023-03-01T16:25:18;13.90;53.60
8856;DHT22;4464;50.882;4.730;2023-03-01T16:27:46;13.90;54.00
8856;DHT22;4464;50.882;4.730;2023-03-01T16:30:15;13.30;53.90
8856;DHT22;4464;50.882;4.730;2023-03-01T16:32:47;13.20;54.30
8856;DHT22;4464;50.882;4.730;2023-03-01T16:35:17;12.50;54.50
8856;DHT22;4464;50.882;4.730;2023-03-01T16:37:46;11.60;55.70
8856;DHT22;4464;50.882;4.730;2023-03-01T16:40:26;10.80;57.00
8856;DHT22;4464;50.882;4.730;2023-03-01T16:42:56;10.20;58.10
8856;DHT22;4464;50.882;4.730;2023-03-01T16:45:25;9.60;60.10
8856;DHT22;4464;50.882;4.730;2023-03-01T16:47:53;9.20;61.60
8856;DHT22;4464;50.882;4.730;2023-03-01T16:50:19;9.00;63.30
8856;DHT22;4464;50.882;4.730;2023-03-01T16:52:50;8.90;63.40
8856;DHT22;4464;50.882;4.730;2023-03-01T16:55:18;8.80;64.60
8856;DHT22;4464;50.882;4.730;2023-03-01T16:57:46;8.60;65.00
8856;DHT22;4464;50.882;4.730;2023-03-01T17:00:15;8.40;64.90
8856;DHT22;4464;50.882;4.730;2023-03-01T17:02:41;8.20;66.10
8856;DHT22;4464;50.882;4.730;2023-03-01T17:05:08;8.10;66.50
8856;DHT22;4464;50.882;4.730;2023-03-01T17:07:38;8.00;67.00
8856;DHT22;4464;50.882;4.730;2023-03-01T17:10:06;7.90;67.70
8856;DHT22;4464;50.882;4.730;2023-03-01T17:12:34;7.60;67.80
8856;DHT22;4464;50.882;4.730;2023-03-01T17:15:03;7.50;69.30
8856;DHT22;4464;50.882;4.730;2023-03-01T17:17:30;7.40;69.10
8856;DHT22;4464;50.882;4.730;2023-03-01T17:19:56;7.20;69.60
8856;DHT22;4464;50.882;4.730;2023-03-01T17:22:24;7.20;70.60
8856;DHT22;4464;50.882;4.730;2023-03-01T17:24:49;7.00;70.70
8856;DHT22;4464;50.882;4.730;2023-03-01T17:27:15;7.00;71.10
8856;DHT22;4464;50.882;4.730;2023-03-01T17:29:42;6.70;72.90
8856;DHT22;4464;50.882;4.730;2023-03-01T17:32:10;6.70;72.50
8856;DHT22;4464;50.882;4.730;2023-03-01T17:34:37;6.70;73.10
8856;DHT22;4464;50.882;4.730;2023-03-01T17:37:03;6.60;73.60
8856;DHT22;4464;50.882;4.730;2023-03-01T17:39:29;6.70;74.00
8856;DHT22;4464;50.882;4.730;2023-03-01T17:42:01;6.70;74.10
8856;DHT22;4464;50.882;4.730;2023-03-01T17:44:27;6.70;74.20
8856;DHT22;4464;50.882;4.730;2023-03-01T17:46:53;6.60;73.70
8856;DHT22;4464;50.882;4.730;2023-03-01T17:49:18;6.60;74.40
8856;DHT22;4464;50.882;4.730;2023-03-01T17:51:47;6.50;74.60
8856;DHT22;4464;50.882;4.730;2023-03-01T17:54:13;6.30;74.90
8856;DHT22;4464;50.882;4.730;2023-03-01T17:56:38;6.10;75.80
8856;DHT22;4464;50.882;4.730;2023-03-01T17:59:06;6.00;76.60
8856;DHT22;4464;50.882;4.730;2023-03-01T18:01:33;6.00;77.40
8856;DHT22;4464;50.882;4.730;2023-03-01T18:04:00;6.00;77.20
8856;DHT22;4464;50.882;4.730;2023-03-01T18:06:29;6.00;78.10
8856;DHT22;4464;50.882;4.730;2023-03-01T18:08:55;6.00;78.20
8856;DHT22;4464;50.882;4.730;2023-03-01T18:11:24;5.90;77.80